Time;durP1;ratioP1;P1;durP2;ratioP2;P2;SDS_P1;SDS_P2;PMS_P1;PMS_P2;Temp;Humidity;BMP_temperature;BMP_pressure;BME280_temperature;BME280_humidity;BME280_pressure;Samples;Min_cycle;Max_cycle;Signal;HPM_P1;HPM_P2
2022/11/01 00:01:19;;;;;;;387.23;173.87;;;;;;;;;;5003733;28;20211;-71
2022/11/01 00:03:45;;;;;;;377.70;167.03;;;;;;;;;;5012177;28;22040;-71
2022/11/01 00:06:10;;;;;;;429.57;192.17;;;;;;;;;;5015148;28;20672;-71
2022/11/01 00:08:36;;;;;;;316.20;143.70;;;;;;;;;;5017084;28;20242;-71
2022/11/01 00:11:03;;;;;;;388.37;176.83;;;;;;;;;;5013841;28;20256;-71
2022/11/01 00:13:29;;;;;;;331.67;152.43;;;;;;;;;;5009509;28;20231;-71
2022/11/01 00:15:55;;;;;;;349.37;155.93;;;;;;;;;;5015833;28;20223;-70
2022/11/01 00:18:21;;;;;;;359.83;158.90;;;;;;;;;;5011527;28;21222;-71
2022/11/01 00:20:47;;;;;;;366.80;165.63;;;;;;;;;;5016917;28;20207;-71
2022/11/01 00:23:13;;;;;;;347.80;160.00;;;;;;;;;;5017389;28;21103;-71
2022/11/01 00:25:39;;;;;;;377.43;167.33;;;;;;;;;;5015548;28;20218;-71
2022/11/01 00:28:05;;;;;;;348.87;157.30;;;;;;;;;;5015129;28;20577;-71
2022/11/01 00:30:31;;;;;;;326.67;150.73;;;;;;;;;;5022036;28;20771;-71
2022/11/01 00:32:57;;;;;;;313.97;143.17;;;;;;;;;;5029682;28;20176;-71
2022/11/01 00:35:23;;;;;;;346.90;161.97;;;;;;;;;;5017953;28;20734;-70
2022/11/01 00:37:50;;;;;;;391.43;177.07;;;;;;;;;;5021040;28;20301;-72
2022/11/01 00:40:16;;;;;;;405.00;182.30;;;;;;;;;;5021001;28;20238;-72
2022/11/01 00:42:42;;;;;;;422.17;191.77;;;;;;;;;;5015227;28;20307;-72
2022/11/01 00:45:08;;;;;;;373.30;170.07;;;;;;;;;;5024828;28;23977;-72
2022/11/01 00:47:33;;;;;;;403.37;181.27;;;;;;;;;;5011138;28;20892;-72
2022/11/01 00:49:59;;;;;;;424.33;190.50;;;;;;;;;;5021494;28;20221;-72
2022/11/01 00:52:25;;;;;;;396.30;175.63;;;;;;;;;;5017207;28;20208;-72
2022/11/01 00:54:51;;;;;;;429.13;193.10;;;;;;;;;;5016909;28;20214;-72
2022/11/01 00:57:17;;;;;;;440.53;194.67;;;;;;;;;;5002969;28;20900;-72
2022/11/01 00:59:43;;;;;;;393.30;177.60;;;;;;;;;;4995192;28;20310;-72
2022/11/01 01:02:09;;;;;;;318.43;145.90;;;;;;;;;;5028398;28;20720;-72
2022/11/01 01:04:40;;;;;;;382.33;174.00;;;;;;;;;;5020800;28;20218;-72
2022/11/01 01:07:06;;;;;;;394.40;180.27;;;;;;;;;;5003868;28;20223;-72
2022/11/01 01:09:32;;;;;;;388.70;178.17;;;;;;;;;;5014116;28;20827;-72
2022/11/01 01:11:58;;;;;;;410.40;185.43;;;;;;;;;;5007994;28;20332;-72
2022/11/01 01:14:24;;;;;;;357.70;163.43;;;;;;;;;;5016391;28;20356;-72
2022/11/01 01:16:50;;;;;;;375.70;171.40;;;;;;;;;;5024249;28;20264;-72
2022/11/01 01:19:16;;;;;;;385.57;173.23;;;;;;;;;;5018979;28;20211;-72
2022/11/01 01:21:42;;;;;;;410.67;183.80;;;;;;;;;;5007771;28;20193;-72
2022/11/01 01:24:08;;;;;;;347.43;160.43;;;;;;;;;;5015473;28;20175;-72
2022/11/01 01:26:34;;;;;;;374.63;166.97;;;;;;;;;;5004835;28;20775;-72
2022/11/01 01:29:00;;;;;;;394.53;176.70;;;;;;;;;;5015255;28;20215;-72
2022/11/01 01:31:26;;;;;;;347.93;155.27;;;;;;;;;;5040566;28;20231;-72
2022/11/01 01:33:52;;;;;;;368.63;166.23;;;;;;;;;;5030935;28;20246;-72
2022/11/01 01:36:18;;;;;;;373.80;171.90;;;;;;;;;;5011729;28;20298;-72
2022/11/01 01:38:44;;;;;;;357.47;166.50;;;;;;;;;;5002258;28;20223;-72
2022/11/01 01:43:54;;;;;;;322.67;157.30;;;;;;;;;;4981892;28;20668;-72
2022/11/01 01:46:20;;;;;;;316.17;153.53;;;;;;;;;;4996475;28;20224;-72
2022/11/01 01:48:49;;;;;;;314.30;149.57;;;;;;;;;;4992013;28;20219;-72
2022/11/01 01:51:17;;;;;;;280.10;140.20;;;;;;;;;;4995881;28;20211;-74
2022/11/01 01:53:48;;;;;;;325.17;157.10;;;;;;;;;;4988026;28;20370;-74
2022/11/01 01:56:16;;;;;;;288.57;142.13;;;;;;;;;;5002646;28;20227;-75
2022/11/01 01:58:44;;;;;;;261.53;132.90;;;;;;;;;;4994172;28;20791;-75
2022/11/01 02:01:11;;;;;;;292.97;144.57;;;;;;;;;;5001214;28;20251;-75
2022/11/01 02:03:37;;;;;;;282.77;140.50;;;;;;;;;;4996744;28;20235;-74
2022/11/01 02:06:11;;;;;;;279.20;137.60;;;;;;;;;;4991339;28;20825;-76
2022/11/01 02:08:38;;;;;;;296.87;143.33;;;;;;;;;;5006666;28;20212;-73
2022/11/01 02:11:05;;;;;;;290.57;140.43;;;;;;;;;;5008594;28;20291;-75
2022/11/01 02:13:31;;;;;;;289.33;137.60;;;;;;;;;;4997039;28;20227;-75
2022/11/01 02:16:00;;;;;;;368.87;171.20;;;;;;;;;;5001662;28;20216;-73
2022/11/01 02:18:38;;;;;;;347.57;161.50;;;;;;;;;;5001782;28;20196;-76
2022/11/01 02:21:13;;;;;;;344.83;160.40;;;;;;;;;;4998246;28;20683;-76
2022/11/01 02:23:50;;;;;;;253.97;124.57;;;;;;;;;;5003116;28;20230;-73
2022/11/01 02:26:22;;;;;;;304.23;144.57;;;;;;;;;;5010467;28;20211;-75
2022/11/01 02:28:51;;;;;;;280.63;139.07;;;;;;;;;;5000291;28;20217;-73
2022/11/01 02:31:30;;;;;;;243.97;123.77;;;;;;;;;;5014675;28;20255;-73
2022/11/01 02:34:01;;;;;;;253.60;125.67;;;;;;;;;;5024252;28;20211;-73
2022/11/01 02:36:33;;;;;;;320.03;153.00;;;;;;;;;;5030478;28;20310;-75
2022/11/01 02:39:02;;;;;;;321.47;147.60;;;;;;;;;;5013129;28;20207;-73
2022/11/01 02:41:47;;;;;;;329.53;150.07;;;;;;;;;;5022174;28;20286;-76
2022/11/01 02:44:18;;;;;;;319.23;144.37;;;;;;;;;;5018836;28;20216;-75
2022/11/01 02:47:01;;;;;;;362.83;165.93;;;;;;;;;;5023931;28;20370;-76
2022/11/01 02:49:32;;;;;;;354.77;159.03;;;;;;;;;;5014669;28;21580;-75
2022/11/01 02:51:58;;;;;;;388.20;172.43;;;;;;;;;;5013268;28;20247;-73
2022/11/01 02:54:31;;;;;;;337.07;152.10;;;;;;;;;;5002443;28;20850;-72
2022/11/01 02:56:59;;;;;;;356.47;162.20;;;;;;;;;;5005592;28;20212;-74
2022/11/01 02:59:26;;;;;;;330.47;147.27;;;;;;;;;;5002290;28;20258;-74
2022/11/01 03:02:00;;;;;;;324.03;142.67;;;;;;;;;;5028149;28;20215;-73
2022/11/01 03:04:26;;;;;;;346.97;155.27;;;;;;;;;;5039658;28;20265;-74
2022/11/01 03:06:56;;;;;;;348.23;156.40;;;;;;;;;;5020780;28;20227;-75
2022/11/01 03:09:22;;;;;;;389.87;175.73;;;;;;;;;;5018753;28;20184;-75
2022/11/01 03:11:54;;;;;;;332.67;148.77;;;;;;;;;;5005871;28;20231;-74
2022/11/01 03:14:31;;;;;;;338.80;151.17;;;;;;;;;;5003506;28;20308;-75
2022/11/01 03:17:09;;;;;;;373.60;174.17;;;;;;;;;;4996047;28;20261;-74
2022/11/01 03:19:41;;;;;;;336.97;156.43;;;;;;;;;;4995182;28;20216;-76
2022/11/01 03:22:12;;;;;;;350.63;162.70;;;;;;;;;;4997373;28;20266;-73
2022/11/01 03:24:47;;;;;;;339.23;155.23;;;;;;;;;;4997994;28;20185;-75
2022/11/01 03:27:20;;;;;;;372.13;170.20;;;;;;;;;;4992016;28;20215;-73
2022/11/01 03:29:55;;;;;;;343.10;156.90;;;;;;;;;;4997516;28;20230;-73
2022/11/01 03:32:23;;;;;;;303.60;139.80;;;;;;;;;;5005246;28;20220;-73
2022/11/01 03:34:49;;;;;;;323.00;146.53;;;;;;;;;;5008820;28;20244;-74
2022/11/01 03:37:16;;;;;;;322.93;146.37;;;;;;;;;;4995421;28;21074;-73
2022/11/01 03:39:44;;;;;;;371.50;167.90;;;;;;;;;;4993820;28;20569;-73
2022/11/01 03:42:13;;;;;;;347.93;162.67;;;;;;;;;;4997619;28;20802;-73
2022/11/01 03:44:41;;;;;;;342.77;157.53;;;;;;;;;;5000962;28;20223;-73
2022/11/01 03:47:08;;;;;;;315.70;144.90;;;;;;;;;;5016086;28;20216;-73
2022/11/01 03:49:34;;;;;;;311.03;141.07;;;;;;;;;;5002634;28;20224;-74
2022/11/01 03:52:00;;;;;;;344.30;158.70;;;;;;;;;;5010620;28;20431;-73
2022/11/01 03:54:28;;;;;;;346.00;159.47;;;;;;;;;;4991888;28;21465;-73
2022/11/01 03:56:54;;;;;;;368.67;169.97;;;;;;;;;;4998515;28;20246;-76
2022/11/01 03:59:25;;;;;;;352.93;159.73;;;;;;;;;;4994165;28;20299;-74
2022/11/01 04:01:51;;;;;;;324.07;145.87;;;;;;;;;;5010943;28;20668;-73
2022/11/01 04:04:17;;;;;;;343.53;157.53;;;;;;;;;;5003786;28;20217;-73
2022/11/01 04:06:43;;;;;;;368.33;167.90;;;;;;;;;;5003236;28;20224;-74
2022/11/01 04:09:09;;;;;;;314.30;143.03;;;;;;;;;;5013000;28;20274;-74
2022/11/01 04:11:35;;;;;;;361.63;162.23;;;;;;;;;;4999115;28;20225;-74
2022/11/01 04:22:16;;;;;;;333.87;151.47;;;;;;;;;;4994624;28;20958;-73
2022/11/01 04:24:42;;;;;;;328.93;147.20;;;;;;;;;;5014547;28;20274;-75
2022/11/01 04:27:07;;;;;;;322.87;145.13;;;;;;;;;;5005379;28;20299;-73
2022/11/01 04:29:33;;;;;;;354.97;160.20;;;;;;;;;;5002508;28;20220;-73
2022/11/01 04:32:00;;;;;;;317.43;142.93;;;;;;;;;;5001622;28;20667;-73
2022/11/01 04:34:40;;;;;;;326.07;148.63;;;;;;;;;;5004820;28;20255;-73
2022/11/01 04:37:06;;;;;;;355.13;162.17;;;;;;;;;;4988159;28;20816;-73
2022/11/01 04:39:32;;;;;;;353.70;158.83;;;;;;;;;;4985256;28;20180;-73
2022/11/01 04:41:58;;;;;;;346.77;155.13;;;;;;;;;;4994036;28;20254;-73
2022/11/01 04:44:24;;;;;;;348.37;161.20;;;;;;;;;;4994391;28;20213;-73
2022/11/01 04:46:50;;;;;;;335.90;150.40;;;;;;;;;;5003502;28;20684;-73
2022/11/01 04:49:16;;;;;;;320.77;145.27;;;;;;;;;;5010156;28;20208;-73
2022/11/01 04:51:42;;;;;;;353.57;157.17;;;;;;;;;;5013044;28;20257;-74
2022/11/01 04:54:08;;;;;;;336.37;150.03;;;;;;;;;;5003259;28;21539;-74
2022/11/01 04:56:34;;;;;;;365.67;164.37;;;;;;;;;;4986927;28;20240;-74
2022/11/01 04:59:00;;;;;;;418.20;189.10;;;;;;;;;;4981333;28;20250;-73
2022/11/01 05:01:26;;;;;;;338.63;153.60;;;;;;;;;;4994130;28;20295;-73
2022/11/01 05:03:51;;;;;;;422.33;183.97;;;;;;;;;;4994238;28;20218;-73
2022/11/01 05:06:17;;;;;;;346.80;155.37;;;;;;;;;;4996310;28;20838;-73
2022/11/01 05:08:43;;;;;;;388.17;173.90;;;;;;;;;;4988417;28;20278;-73
2022/11/01 05:11:09;;;;;;;345.70;158.37;;;;;;;;;;4998345;28;20216;-73
2022/11/01 05:13:35;;;;;;;375.90;170.37;;;;;;;;;;4986513;28;20316;-73
2022/11/01 05:16:02;;;;;;;363.97;165.10;;;;;;;;;;4984938;28;20232;-73
2022/11/01 05:18:28;;;;;;;317.07;143.97;;;;;;;;;;4999338;28;20540;-73
2022/11/01 05:20:55;;;;;;;354.33;160.47;;;;;;;;;;5020526;28;20185;-73
2022/11/01 05:23:21;;;;;;;360.73;164.63;;;;;;;;;;5005830;28;20697;-73
2022/11/01 05:25:47;;;;;;;327.20;143.33;;;;;;;;;;5020913;28;20216;-73
2022/11/01 05:28:13;;;;;;;364.90;162.03;;;;;;;;;;5002650;28;20223;-73
2022/11/01 05:30:40;;;;;;;350.60;154.43;;;;;;;;;;4982787;28;20216;-73
2022/11/01 05:33:06;;;;;;;519.37;230.70;;;;;;;;;;4999281;28;20180;-72
2022/11/01 05:35:33;;;;;;;345.93;156.37;;;;;;;;;;5008065;28;20208;-72
2022/11/01 05:38:00;;;;;;;353.23;159.67;;;;;;;;;;5014766;28;20612;-72
2022/11/01 05:40:26;;;;;;;322.93;148.90;;;;;;;;;;5021795;28;20740;-72
2022/11/01 05:42:53;;;;;;;361.00;163.00;;;;;;;;;;5035038;28;20215;-73
2022/11/01 05:45:19;;;;;;;361.37;161.47;;;;;;;;;;5026261;28;20184;-73
2022/11/01 05:47:45;;;;;;;385.47;172.20;;;;;;;;;;5036070;28;20258;-73
2022/11/01 05:50:11;;;;;;;355.97;161.83;;;;;;;;;;5029259;28;20235;-73
2022/11/01 05:52:38;;;;;;;351.77;158.03;;;;;;;;;;5027080;28;20224;-73
2022/11/01 05:55:04;;;;;;;356.97;162.43;;;;;;;;;;5024081;28;21357;-73
2022/11/01 05:57:30;;;;;;;394.70;179.27;;;;;;;;;;5020109;28;20203;-79
2022/11/01 05:59:56;;;;;;;346.30;158.40;;;;;;;;;;5035182;28;20268;-73
2022/11/01 06:02:22;;;;;;;359.77;165.37;;;;;;;;;;5023586;28;20764;-71
2022/11/01 06:04:48;;;;;;;371.57;172.47;;;;;;;;;;5013304;28;20300;-73
2022/11/01 06:07:14;;;;;;;334.73;156.80;;;;;;;;;;5023350;28;20291;-73
2022/11/01 06:09:40;;;;;;;307.17;143.23;;;;;;;;;;5027105;28;20835;-73
2022/11/01 06:12:06;;;;;;;307.17;142.07;;;;;;;;;;5028544;28;20795;-73
2022/11/01 06:14:32;;;;;;;315.03;145.67;;;;;;;;;;5022988;28;20307;-73
2022/11/01 06:16:58;;;;;;;309.23;141.37;;;;;;;;;;5029314;28;20220;-74
2022/11/01 06:19:24;;;;;;;311.23;142.83;;;;;;;;;;5033567;28;20207;-74
2022/11/01 06:21:50;;;;;;;309.17;143.00;;;;;;;;;;5040115;28;20224;-73
2022/11/01 06:24:17;;;;;;;314.40;144.57;;;;;;;;;;5026110;28;20560;-73
2022/11/01 06:26:43;;;;;;;314.30;144.63;;;;;;;;;;5018989;28;20225;-73
2022/11/01 06:29:09;;;;;;;310.40;142.90;;;;;;;;;;5015041;28;20445;-73
2022/11/01 06:31:36;;;;;;;302.50;137.13;;;;;;;;;;5018950;28;20249;-74
2022/11/01 06:34:02;;;;;;;298.53;137.03;;;;;;;;;;5026440;28;20230;-75
2022/11/01 06:36:29;;;;;;;327.27;154.90;;;;;;;;;;5041830;28;20285;-74
2022/11/01 06:38:57;;;;;;;317.80;146.70;;;;;;;;;;5036618;28;20206;-74
2022/11/01 06:41:27;;;;;;;362.70;170.33;;;;;;;;;;5053671;28;20219;-76
2022/11/01 06:43:53;;;;;;;347.87;161.57;;;;;;;;;;5028343;28;20209;-75
2022/11/01 06:46:21;;;;;;;292.03;133.73;;;;;;;;;;5028398;28;20236;-74
2022/11/01 06:48:48;;;;;;;301.67;139.43;;;;;;;;;;5031175;28;20306;-70
2022/11/01 06:51:14;;;;;;;371.23;172.07;;;;;;;;;;5032285;28;20291;-66
2022/11/01 06:53:39;;;;;;;348.87;158.93;;;;;;;;;;4957104;28;20215;-67
2022/11/01 06:56:06;;;;;;;373.13;171.87;;;;;;;;;;5013399;28;20219;-66
2022/11/01 06:58:32;;;;;;;339.63;154.83;;;;;;;;;;5019332;28;20227;-67
2022/11/01 07:01:00;;;;;;;305.87;139.03;;;;;;;;;;5034141;28;20230;-66
2022/11/01 07:03:26;;;;;;;330.77;152.27;;;;;;;;;;5040299;28;20269;-67
2022/11/01 07:05:52;;;;;;;346.20;157.80;;;;;;;;;;5028437;28;20180;-74
2022/11/01 07:08:18;;;;;;;335.03;161.67;;;;;;;;;;5052106;28;20224;-73
2022/11/01 07:10:44;;;;;;;306.63;144.03;;;;;;;;;;5051250;28;20226;-75
2022/11/01 07:13:16;;;;;;;304.57;141.27;;;;;;;;;;5046016;28;20218;-75
2022/11/01 07:15:51;;;;;;;311.57;146.27;;;;;;;;;;5052099;28;21027;-76
2022/11/01 07:18:29;;;;;;;326.57;152.37;;;;;;;;;;5026660;28;20192;-75
2022/11/01 07:20:59;;;;;;;304.27;140.90;;;;;;;;;;5021007;28;20230;-74
2022/11/01 07:23:25;;;;;;;349.77;165.67;;;;;;;;;;5013903;28;20334;-68
2022/11/01 07:25:52;;;;;;;369.00;173.00;;;;;;;;;;5029155;28;20783;-70
2022/11/01 07:28:21;;;;;;;309.47;143.37;;;;;;;;;;5034402;28;20226;-74
2022/11/01 07:31:10;;;;;;;301.93;140.23;;;;;;;;;;5044510;28;20261;-74
2022/11/01 07:33:38;;;;;;;314.40;152.37;;;;;;;;;;5040448;28;20183;-73
2022/11/01 07:36:23;;;;;;;301.93;143.63;;;;;;;;;;5052904;28;20191;-75
2022/11/01 07:39:06;;;;;;;353.83;166.73;;;;;;;;;;5021508;28;20266;-77
2022/11/01 07:41:33;;;;;;;314.97;145.77;;;;;;;;;;5019639;28;20882;-77
2022/11/01 07:44:00;;;;;;;334.47;156.43;;;;;;;;;;5017066;28;20244;-76
2022/11/01 07:46:39;;;;;;;314.93;149.70;;;;;;;;;;5016258;28;20303;-75
2022/11/01 07:49:22;;;;;;;302.93;140.20;;;;;;;;;;5013386;28;20219;-72
2022/11/01 07:51:59;;;;;;;302.07;137.73;;;;;;;;;;5022728;28;20255;-71
2022/11/01 07:54:33;;;;;;;317.40;158.40;;;;;;;;;;5009581;28;20192;-72
2022/11/01 07:57:04;;;;;;;305.73;139.60;;;;;;;;;;5032198;28;20564;-72
2022/11/01 07:59:50;;;;;;;307.77;139.13;;;;;;;;;;5006783;28;20200;-71
2022/11/01 08:02:17;;;;;;;309.20;145.27;;;;;;;;;;5030766;28;20234;-72
2022/11/01 08:04:47;;;;;;;302.77;144.03;;;;;;;;;;5022474;28;20224;-71
2022/11/01 08:07:22;;;;;;;297.80;140.17;;;;;;;;;;5026865;28;20215;-71
2022/11/01 08:09:48;;;;;;;302.93;141.70;;;;;;;;;;5015014;28;20216;-72
2022/11/01 08:12:14;;;;;;;314.50;149.53;;;;;;;;;;5029524;28;20202;-71
2022/11/01 08:14:40;;;;;;;304.50;144.23;;;;;;;;;;5010645;28;20300;-71
2022/11/01 08:17:07;;;;;;;309.47;146.27;;;;;;;;;;5010251;28;20256;-72
2022/11/01 08:19:33;;;;;;;306.67;142.43;;;;;;;;;;5009732;28;20670;-72
2022/11/01 08:21:59;;;;;;;311.53;146.30;;;;;;;;;;5020476;28;20307;-71
2022/11/01 08:24:26;;;;;;;310.87;147.27;;;;;;;;;;5029228;28;20210;-72
2022/11/01 08:26:52;;;;;;;324.70;156.67;;;;;;;;;;5017849;28;20212;-72
2022/11/01 08:29:19;;;;;;;305.77;144.67;;;;;;;;;;5023862;28;20212;-72
2022/11/01 08:31:46;;;;;;;301.63;142.60;;;;;;;;;;5029757;28;20357;-72
2022/11/01 08:34:12;;;;;;;307.40;145.77;;;;;;;;;;5024566;28;20289;-71
2022/11/01 08:36:38;;;;;;;327.77;157.37;;;;;;;;;;5022431;28;20220;-68
2022/11/01 08:39:04;;;;;;;306.87;144.27;;;;;;;;;;5030747;28;20221;-72
2022/11/01 08:41:30;;;;;;;305.03;152.67;;;;;;;;;;5029861;28;20306;-72
2022/11/01 08:43:59;;;;;;;318.23;150.63;;;;;;;;;;5031641;28;20250;-72
2022/11/01 08:46:25;;;;;;;299.93;139.80;;;;;;;;;;5029655;28;20231;-72
2022/11/01 08:48:55;;;;;;;297.50;139.33;;;;;;;;;;5031654;28;20208;-72
2022/11/01 08:51:24;;;;;;;294.93;139.40;;;;;;;;;;5032181;28;20195;-71
2022/11/01 08:53:50;;;;;;;296.30;140.87;;;;;;;;;;5051732;28;20213;-72
2022/11/01 08:56:19;;;;;;;202.13;117.90;;;;;;;;;;5051227;28;20226;-72
2022/11/01 08:58:47;;;;;;;176.27;113.10;;;;;;;;;;5053851;28;20306;-73
2022/11/01 09:01:13;;;;;;;173.83;111.97;;;;;;;;;;5055870;28;20302;-72
2022/11/01 09:03:39;;;;;;;177.10;114.67;;;;;;;;;;5056572;28;20191;-72
2022/11/01 09:06:05;;;;;;;152.23;105.87;;;;;;;;;;5056328;28;20576;-72
2022/11/01 09:08:31;;;;;;;170.80;115.77;;;;;;;;;;5056058;28;20730;-72
2022/11/01 09:10:57;;;;;;;169.37;112.20;;;;;;;;;;5054609;28;20227;-71
2022/11/01 09:13:23;;;;;;;165.33;112.03;;;;;;;;;;5055239;28;20216;-72
2022/11/01 09:15:49;;;;;;;164.50;111.53;;;;;;;;;;5055746;28;20368;-71
2022/11/01 09:18:15;;;;;;;161.87;108.87;;;;;;;;;;5056723;28;20207;-72
2022/11/01 09:20:41;;;;;;;165.57;111.80;;;;;;;;;;5055048;28;20237;-71
2022/11/01 09:23:07;;;;;;;159.23;109.60;;;;;;;;;;5055135;28;20215;-72
2022/11/01 09:25:33;;;;;;;170.50;114.33;;;;;;;;;;5045467;28;20204;-67
2022/11/01 09:27:59;;;;;;;168.90;114.50;;;;;;;;;;5047229;28;20291;-73
2022/11/01 09:30:26;;;;;;;174.60;119.23;;;;;;;;;;5053159;28;20663;-72
2022/11/01 09:32:52;;;;;;;164.60;115.33;;;;;;;;;;5019036;28;20660;-72
2022/11/01 09:35:18;;;;;;;176.77;121.97;;;;;;;;;;5033241;28;20212;-71
2022/11/01 09:37:44;;;;;;;157.30;110.53;;;;;;;;;;5031160;28;20220;-71
2022/11/01 09:40:13;;;;;;;145.27;110.40;;;;;;;;;;5031361;28;20216;-72
2022/11/01 09:42:42;;;;;;;180.97;122.30;;;;;;;;;;5031479;28;20259;-71
2022/11/01 09:45:19;;;;;;;173.13;121.97;;;;;;;;;;5030728;28;20318;-72
2022/11/01 09:47:47;;;;;;;155.20;111.43;;;;;;;;;;5014770;28;20220;-71
2022/11/01 09:50:25;;;;;;;158.10;115.03;;;;;;;;;;5048546;28;20211;-71
2022/11/01 09:52:52;;;;;;;145.57;108.85;;;;;;;;;;5040609;28;20257;-71
2022/11/01 09:55:21;;;;;;;156.52;115.05;;;;;;;;;;5031897;28;20228;-71
2022/11/01 09:57:57;;;;;;;155.05;116.72;;;;;;;;;;5030570;28;20282;-70
2022/11/01 10:00:23;;;;;;;157.90;116.32;;;;;;;;;;5024145;28;20242;-71
2022/11/01 10:02:53;;;;;;;140.07;115.63;;;;;;;;;;5046667;28;20203;-71
2022/11/01 10:05:19;;;;;;;144.25;120.28;;;;;;;;;;5041223;28;20211;-71
2022/11/01 10:07:51;;;;;;;142.27;115.40;;;;;;;;;;5051773;28;20220;-71
2022/11/01 10:10:24;;;;;;;127.35;106.22;;;;;;;;;;5043900;28;20216;-71
2022/11/01 10:13:09;;;;;;;126.07;112.32;;;;;;;;;;5033049;28;20759;-72
2022/11/01 10:15:40;;;;;;;160.32;126.45;;;;;;;;;;5026815;28;20468;-69
2022/11/01 10:18:18;;;;;;;166.27;127.72;;;;;;;;;;5026388;28;20200;-78
2022/11/01 10:20:44;;;;;;;189.33;135.67;;;;;;;;;;5008328;28;20242;-75
2022/11/01 10:23:14;;;;;;;179.95;133.23;;;;;;;;;;5002044;28;20220;-77
2022/11/01 10:25:42;;;;;;;148.00;111.78;;;;;;;;;;5016373;28;20222;-77
2022/11/01 10:28:26;;;;;;;204.65;144.23;;;;;;;;;;5027330;28;20211;-74
2022/11/01 10:30:55;;;;;;;187.43;132.50;;;;;;;;;;5010950;28;20231;-74
2022/11/01 10:33:25;;;;;;;208.73;143.00;;;;;;;;;;5021193;28;20226;-74
2022/11/01 10:35:55;;;;;;;166.30;125.05;;;;;;;;;;5023241;28;20216;-74
2022/11/01 10:38:40;;;;;;;138.05;112.57;;;;;;;;;;5023695;28;20537;-74
2022/11/01 10:41:19;;;;;;;212.85;149.35;;;;;;;;;;5006468;28;20632;-76
2022/11/01 10:43:47;;;;;;;130.10;109.70;;;;;;;;;;5014133;28;20219;-78
2022/11/01 10:46:16;;;;;;;226.32;161.20;;;;;;;;;;5013131;28;20451;-76
2022/11/01 10:48:46;;;;;;;172.70;132.50;;;;;;;;;;5018776;28;20311;-76
2022/11/01 10:51:14;;;;;;;191.85;141.85;;;;;;;;;;5014216;28;20230;-76
2022/11/01 10:53:43;;;;;;;173.23;130.90;;;;;;;;;;5012773;28;20326;-76
2022/11/01 10:56:12;;;;;;;170.10;128.15;;;;;;;;;;5005040;28;20226;-76
2022/11/01 10:58:41;;;;;;;176.40;135.43;;;;;;;;;;4995266;28;20220;-76
2022/11/01 11:01:09;;;;;;;139.73;115.95;;;;;;;;;;4997088;28;20216;-76
2022/11/01 11:03:37;;;;;;;175.07;135.77;;;;;;;;;;5020386;28;20585;-76
2022/11/01 11:06:05;;;;;;;191.73;149.35;;;;;;;;;;4990351;28;20301;-76
2022/11/01 11:08:31;;;;;;;163.57;138.05;;;;;;;;;;5001821;28;20329;-76
2022/11/01 11:11:01;;;;;;;174.73;142.25;;;;;;;;;;4989067;28;20371;-76
2022/11/01 11:13:28;;;;;;;243.40;176.93;;;;;;;;;;4992135;28;20612;-76
2022/11/01 11:15:55;;;;;;;187.70;139.95;;;;;;;;;;4994475;28;20916;-76
2022/11/01 11:18:29;;;;;;;139.27;124.05;;;;;;;;;;5011519;28;20682;-76
2022/11/01 11:21:00;;;;;;;144.13;122.68;;;;;;;;;;5037411;28;20757;-76
2022/11/01 11:23:28;;;;;;;195.13;152.40;;;;;;;;;;5002435;28;20220;-76
2022/11/01 11:26:00;;;;;;;135.65;120.82;;;;;;;;;;5018855;28;20306;-76
2022/11/01 11:28:29;;;;;;;133.63;116.28;;;;;;;;;;5036940;28;20532;-76
2022/11/01 11:30:55;;;;;;;184.00;145.07;;;;;;;;;;5020292;28;20314;-76
2022/11/01 11:33:22;;;;;;;130.68;116.50;;;;;;;;;;5035162;28;20180;-76
2022/11/01 11:35:58;;;;;;;140.57;124.13;;;;;;;;;;5038618;28;21161;-76
2022/11/01 11:38:40;;;;;;;124.05;110.85;;;;;;;;;;5035607;28;20277;-76
2022/11/01 11:41:08;;;;;;;155.93;125.22;;;;;;;;;;5020643;28;21138;-76
2022/11/01 11:43:36;;;;;;;125.07;111.57;;;;;;;;;;5017249;28;20215;-76
2022/11/01 11:46:14;;;;;;;136.93;120.30;;;;;;;;;;5029458;28;20211;-76
2022/11/01 11:48:47;;;;;;;132.05;117.63;;;;;;;;;;5024314;28;20172;-76
2022/11/01 11:51:13;;;;;;;131.07;116.93;;;;;;;;;;5028242;28;20200;-76
2022/11/01 11:53:39;;;;;;;164.90;139.60;;;;;;;;;;5021641;28;20235;-77
2022/11/01 11:56:07;;;;;;;198.23;148.70;;;;;;;;;;5024809;28;20597;-75
2022/11/01 11:58:38;;;;;;;271.48;187.80;;;;;;;;;;5030208;28;20204;-75
2022/11/01 12:01:05;;;;;;;248.23;180.90;;;;;;;;;;5020671;28;20318;-77
2022/11/01 12:03:37;;;;;;;247.25;175.77;;;;;;;;;;5034222;28;20175;-76
2022/11/01 12:06:07;;;;;;;193.48;153.10;;;;;;;;;;5031898;28;20604;-75
2022/11/01 12:08:43;;;;;;;225.02;170.85;;;;;;;;;;5026515;28;20322;-76
2022/11/01 12:11:09;;;;;;;207.85;160.30;;;;;;;;;;5035938;28;20257;-76
2022/11/01 12:13:36;;;;;;;181.43;145.90;;;;;;;;;;5029304;28;20786;-76
2022/11/01 12:16:06;;;;;;;168.25;138.75;;;;;;;;;;5034760;28;20207;-76
2022/11/01 12:18:32;;;;;;;185.18;145.27;;;;;;;;;;5031804;28;20210;-75
2022/11/01 12:20:58;;;;;;;198.65;150.27;;;;;;;;;;5034352;28;20250;-75
2022/11/01 12:23:32;;;;;;;258.38;181.63;;;;;;;;;;5030744;28;20244;-76
2022/11/01 12:25:59;;;;;;;223.68;162.50;;;;;;;;;;5023204;28;20222;-76
2022/11/01 12:28:30;;;;;;;268.73;187.80;;;;;;;;;;5021607;28;20707;-77
2022/11/01 12:30:59;;;;;;;167.43;139.90;;;;;;;;;;5037690;28;20721;-76
2022/11/01 12:33:31;;;;;;;153.60;128.02;;;;;;;;;;5039361;28;20210;-75
2022/11/01 12:35:58;;;;;;;191.57;146.63;;;;;;;;;;5033648;28;20236;-74
2022/11/01 12:38:50;;;;;;;222.23;159.45;;;;;;;;;;5039118;28;20751;-74
2022/11/01 12:41:31;;;;;;;202.52;146.35;;;;;;;;;;5024663;28;20455;-74
2022/11/01 12:44:00;;;;;;;227.23;159.23;;;;;;;;;;5028205;28;20228;-74
2022/11/01 12:46:46;;;;;;;258.13;171.90;;;;;;;;;;5020904;28;20597;-74
2022/11/01 12:49:17;;;;;;;258.35;168.20;;;;;;;;;;5014945;28;20622;-74
2022/11/01 12:51:51;;;;;;;297.60;199.02;;;;;;;;;;5025180;28;21312;-75
2022/11/01 12:54:17;;;;;;;311.25;205.80;;;;;;;;;;5007656;28;20180;-73
2022/11/01 12:56:43;;;;;;;308.92;207.75;;;;;;;;;;4998051;28;20242;-74
2022/11/01 12:59:13;;;;;;;350.00;234.43;;;;;;;;;;4996411;28;20204;-74
2022/11/01 13:01:48;;;;;;;323.52;215.70;;;;;;;;;;4999466;28;20213;-74
2022/11/01 13:04:26;;;;;;;359.90;234.30;;;;;;;;;;4988006;28;20742;-74
2022/11/01 13:06:55;;;;;;;358.20;222.90;;;;;;;;;;4996126;28;20229;-74
2022/11/01 13:09:30;;;;;;;315.13;193.77;;;;;;;;;;5010029;28;20180;-73
2022/11/01 13:11:58;;;;;;;322.23;201.93;;;;;;;;;;5030592;28;20211;-74
2022/11/01 13:14:43;;;;;;;385.80;234.27;;;;;;;;;;5003329;28;20211;-73
2022/11/01 13:17:15;;;;;;;343.65;216.30;;;;;;;;;;5005348;28;20260;-74
2022/11/01 13:19:49;;;;;;;314.73;196.00;;;;;;;;;;5009760;28;20265;-74
2022/11/01 13:22:25;;;;;;;320.50;197.38;;;;;;;;;;5009163;28;20220;-74
2022/11/01 13:24:57;;;;;;;317.27;195.48;;;;;;;;;;5001534;28;20703;-74
2022/11/01 13:27:35;;;;;;;323.92;196.20;;;;;;;;;;5002086;28;20204;-74
2022/11/01 13:30:14;;;;;;;309.35;191.75;;;;;;;;;;5003436;28;20671;-73
2022/11/01 13:32:52;;;;;;;320.98;200.85;;;;;;;;;;5001864;28;20208;-75
2022/11/01 13:35:28;;;;;;;291.55;186.15;;;;;;;;;;5011074;28;21556;-75
2022/11/01 13:38:08;;;;;;;297.45;176.52;;;;;;;;;;5008729;28;20247;-76
2022/11/01 13:40:39;;;;;;;329.15;194.20;;;;;;;;;;5006494;28;20781;-75
2022/11/01 13:43:18;;;;;;;286.58;184.15;;;;;;;;;;5017934;28;20247;-76
2022/11/01 13:46:07;;;;;;;343.67;207.32;;;;;;;;;;5007399;28;20307;-76
2022/11/01 13:48:39;;;;;;;331.10;204.48;;;;;;;;;;5005071;28;22372;-74
2022/11/01 13:51:11;;;;;;;314.85;192.30;;;;;;;;;;5002573;28;20749;-76
2022/11/01 13:53:43;;;;;;;352.13;216.85;;;;;;;;;;4993004;28;20273;-75
2022/11/01 13:56:12;;;;;;;300.52;185.65;;;;;;;;;;5001877;28;20224;-76
2022/11/01 13:58:38;;;;;;;296.48;185.00;;;;;;;;;;5007621;28;20216;-74
2022/11/01 14:01:23;;;;;;;261.20;164.80;;;;;;;;;;5013769;28;20214;-76
2022/11/01 14:04:05;;;;;;;279.10;179.13;;;;;;;;;;5030682;28;20213;-75
2022/11/01 14:06:35;;;;;;;252.88;161.13;;;;;;;;;;5036831;28;20591;-75
2022/11/01 14:09:19;;;;;;;262.48;169.25;;;;;;;;;;5031791;28;20194;-76
2022/11/01 14:11:47;;;;;;;364.10;235.13;;;;;;;;;;5009769;28;20258;-75
2022/11/01 14:14:29;;;;;;;270.77;165.98;;;;;;;;;;5020436;28;20215;-75